Old Saybrook, Connecticut
Current Conditions -  °F | °C
As of 8:35 AM on Friday 28 Nov 2014 (Local Time) from KSNC Reporting Station
Clear Clear  
Wind Chill: 23°   Ceiling: Unl
Heat Index: 32°   Visibility: 10mi
Dew Point: 23°   Wind: 12mph
Humidity: 69%   Direction: 330°NNW
Pressure: 30.09"   Gusts: 18mph
Location:  41.29°N, 72.38°W
Report Text: KSNC 281335Z AUTO 33010G16KT 10SM CLR 00/M05 A3009 RMK AO2
Loading
Personal Weather Stations






























Interactive Weather Map New forecast layout! Learn more

10-Day Weather Forecast

Advertisements
Track Severe Weather on mobile